Bookmark and Share
Track history (hours):
 

Rodney Mitchell

More information available from US FCC via Universal Licensing System and Coast Guard Vessel Documentation Center.

Last reported at 2014-Apr-16 09:25 UTC. Time now 2014-Apr-16 13:42 UTC.
Position N 29°30' W 094°53'.

; draft 3 m.

Type: Towing. MMSI: 367028860.

NotesDate/timePositionNaut miles runAvg speedWind from/ knotsBaromVisibWave heightAir tempDewpointWater temp
2014-Apr-16 09:25N 29°30' W 094°53'4 4.4
2014-Apr-16 08:31N 29°34' W 094°55'5 5.1
2014-Apr-16 07:32N 29°38' W 094°58'5 5.3
2014-Apr-16 06:33N 29°42' W 095°01'5 4.9
2014-Apr-16 05:33N 29°46' W 095°05'  
2014-Apr-12 04:31N 29°46' W 095°06'0 0.0
2014-Apr-12 03:33N 29°46' W 095°06'0 0.0
2014-Apr-12 02:29N 29°46' W 095°06'0 0.0
2014-Apr-12 01:23N 29°46' W 095°06'0 0.0
2014-Apr-12 00:33N 29°46' W 095°06'0 0.1
2014-Apr-11 17:33N 29°47' W 095°06'0 0.4
2014-Apr-11 16:33N 29°46' W 095°06'0 0.0
2014-Apr-11 15:33N 29°46' W 095°06'1 0.2
2014-Apr-11 12:14N 29°47' W 095°06'0 0.2
2014-Apr-11 11:32N 29°47' W 095°06'0 0.0
2014-Apr-11 10:33N 29°47' W 095°06'0 0.0
2014-Apr-11 09:30N 29°47' W 095°06'0 0.0
2014-Apr-11 08:33N 29°47' W 095°06'0 0.0
2014-Apr-11 07:31N 29°47' W 095°06'0 0.0
2014-Apr-11 06:32N 29°47' W 095°06'0 0.0
2014-Apr-11 05:31N 29°47' W 095°06'0 0.0
2014-Apr-11 04:33N 29°47' W 095°06'0 0.0
2014-Apr-11 03:30N 29°47' W 095°06'0 0.0
2014-Apr-11 02:33N 29°47' W 095°06'0 0.0
2014-Apr-11 01:33N 29°47' W 095°06'0 0.0
2014-Apr-11 00:33N 29°47' W 095°06'0 0.0
2014-Apr-10 23:33N 29°47' W 095°06'0 0.0
2014-Apr-10 22:33N 29°47' W 095°06'0 0.0
2014-Apr-10 21:33N 29°47' W 095°06'0 0.0
2014-Apr-10 20:33N 29°47' W 095°06'0 0.0
2014-Apr-10 19:33N 29°47' W 095°06'0 0.0
2014-Apr-10 18:33N 29°47' W 095°06'0 0.0
2014-Apr-10 17:33N 29°47' W 095°06'0 0.0
2014-Apr-10 16:33N 29°47' W 095°06'0 0.0
2014-Apr-10 15:33N 29°47' W 095°06'0 0.0
2014-Apr-10 14:33N 29°47' W 095°06'0 0.0
2014-Apr-10 13:33N 29°47' W 095°06'0 0.5
2014-Apr-10 12:33N 29°46' W 095°06'0 0.0
2014-Apr-10 11:33N 29°46' W 095°06'0 0.4
2014-Apr-10 10:31N 29°47' W 095°06'0 0.0
2014-Apr-10 00:27N 29°47' W 095°06'0 0.0
2014-Apr-09 23:31N 29°47' W 095°06'0 0.0
2014-Apr-09 22:33N 29°47' W 095°06'0 0.0
2014-Apr-09 21:33N 29°47' W 095°06'0 0.0
2014-Apr-09 20:33N 29°47' W 095°06'0 0.0
2014-Apr-09 19:30N 29°47' W 095°06'0 0.0
2014-Apr-09 17:21N 29°47' W 095°06'0 0.0
2014-Apr-09 16:26N 29°47' W 095°06'0 0.0
2014-Apr-09 14:24N 29°47' W 095°06'0 0.0
2014-Apr-09 13:33N 29°47' W 095°06'1 0.9
2014-Apr-09 12:30N 29°46' W 095°06'5 4.8
2014-Apr-09 11:32N 29°43' W 095°01'5 4.9
2014-Apr-09 10:33N 29°39' W 094°58'6 5.7
2014-Apr-09 09:33N 29°34' W 094°55'6 6.4
2014-Apr-09 08:33N 29°29' W 094°51'  

Dump ship's entire track history

sailing weather and tide predictions

Rodney Mitchell — WCV8372 — position and weather